Les Eplatures Airport

Airport
ICAO code: 
LSGC
IATA Code: 
ZHV
Summary
ICAO Region: 
EUR
Territory: 
Location: 
La Chaux-de-Fonds, Neuchatel
Serving: 
Les Eplatures
Elevation: 
3368 ft
Coordinates: 
Aerial View: 
47° 5' 1.86" N, 6° 47' 34.21" E
Metar
Observation
LSGC 221120Z 05008KT CAVOK M01/M04 Q1030
Station
Les Eplatures
Date/Time
2022-01-22 11:20:00
Wind direction
50°
Wind speed
08 kts
Lowest cloud amount
clouds and visibility OK
Temperature
-1°C
Dew point
-4°C
Humidity
80%
QNH
1030 hPa
Weather condition
n/a

Les Eplatures Airport is a small international airport near La Chaux-de-Fonds, Switzerland.

Climatology

Humid continental climate (Köppen climate classification Dfb)

Runways

Designator Length Width Surface Rops
6/24 1130 27 ASP No/No
Airport map: 
Aerial View: 

SKYbrary Partners:

Safety knowledge contributed by: